createdAt,value
2023-03-11T00:00:18.694Z,3.00
2023-03-11T00:02:47.269Z,2.90
2023-03-11T00:05:18.137Z,3.00
2023-03-11T00:07:45.216Z,2.90
2023-03-11T00:10:16.282Z,2.90
2023-03-11T00:12:43.237Z,3.00
2023-03-11T00:15:10.813Z,2.90
2023-03-11T00:17:37.589Z,2.90
2023-03-11T00:20:05.714Z,2.90
2023-03-11T00:22:32.775Z,3.00
2023-03-11T00:24:59.780Z,2.90
2023-03-11T00:27:26.585Z,2.90
2023-03-11T00:29:53.442Z,2.70
2023-03-11T00:32:20.543Z,2.70
2023-03-11T00:34:47.368Z,2.80
2023-03-11T00:37:14.334Z,2.80
2023-03-11T00:39:43.726Z,2.60
2023-03-11T00:42:10.498Z,2.60
2023-03-11T00:44:37.245Z,2.40
2023-03-11T00:47:04.163Z,2.50
2023-03-11T00:49:30.948Z,2.50
2023-03-11T00:51:57.766Z,2.50
2023-03-11T00:54:24.576Z,2.30
2023-03-11T00:56:51.375Z,2.40
2023-03-11T00:59:18.144Z,2.40
2023-03-11T01:01:45.070Z,2.30
2023-03-11T01:04:12.181Z,2.20
2023-03-11T01:06:45.215Z,2.30
2023-03-11T01:09:12.699Z,2.20
2023-03-11T01:11:40.049Z,2.10
2023-03-11T01:14:06.879Z,2.20
2023-03-11T01:16:33.624Z,2.30
2023-03-11T01:19:00.413Z,2.20
2023-03-11T01:21:27.222Z,2.30
2023-03-11T01:23:54.059Z,2.10
2023-03-11T01:26:20.941Z,2.00
2023-03-11T01:28:47.729Z,2.10
2023-03-11T01:31:14.521Z,2.00
2023-03-11T01:33:41.557Z,2.10
2023-03-11T01:36:09.843Z,2.00
2023-03-11T01:38:36.704Z,1.70
2023-03-11T01:41:04.083Z,1.80
2023-03-11T01:43:44.550Z,1.80
2023-03-11T01:46:18.695Z,1.80
2023-03-11T01:49:05.621Z,1.70
2023-03-11T01:51:39.067Z,1.70
2023-03-11T01:54:11.228Z,1.80
2023-03-11T01:56:39.716Z,1.80
2023-03-11T01:59:09.063Z,1.90
2023-03-11T02:01:44.204Z,1.90
2023-03-11T02:04:11.067Z,1.80
2023-03-11T02:06:38.251Z,1.80
2023-03-11T02:09:05.567Z,1.80
2023-03-11T02:11:32.797Z,1.90
2023-03-11T02:14:03.789Z,2.00
2023-03-11T02:16:31.331Z,2.00
2023-03-11T02:19:11.583Z,2.00
2023-03-11T02:21:39.597Z,1.90
2023-03-11T02:24:35.611Z,1.90
2023-03-11T02:27:08.303Z,1.80
2023-03-11T02:29:35.169Z,1.70
2023-03-11T02:32:06.217Z,1.80
2023-03-11T02:34:35.506Z,1.70
2023-03-11T02:37:09.226Z,1.80
2023-03-11T02:39:38.597Z,1.70
2023-03-11T02:42:32.156Z,1.80
2023-03-11T02:45:07.594Z,1.70
2023-03-11T02:47:37.510Z,1.80
2023-03-11T02:50:05.796Z,1.60
2023-03-11T02:52:34.529Z,1.60
2023-03-11T02:55:01.741Z,1.60
2023-03-11T02:57:28.558Z,1.60
2023-03-11T02:59:55.500Z,1.70
2023-03-11T03:02:22.298Z,1.70
2023-03-11T03:04:49.118Z,1.70
2023-03-11T03:07:15.925Z,1.70
2023-03-11T03:09:42.721Z,1.60
2023-03-11T03:12:09.594Z,1.60
2023-03-11T03:14:36.424Z,1.70
2023-03-11T03:17:03.301Z,1.50
2023-03-11T03:19:30.096Z,1.50
2023-03-11T03:21:56.862Z,1.40
2023-03-11T03:24:23.687Z,1.20
2023-03-11T03:26:50.450Z,1.20
2023-03-11T03:29:17.336Z,1.30
2023-03-11T03:31:44.277Z,1.30
2023-03-11T03:34:11.367Z,1.50
2023-03-11T03:36:38.207Z,1.70
2023-03-11T03:39:05.937Z,1.80
2023-03-11T03:41:32.731Z,1.80
2023-03-11T03:43:59.938Z,1.80
2023-03-11T03:46:26.796Z,1.50
2023-03-11T03:48:53.620Z,1.50
2023-03-11T03:51:20.418Z,1.30
2023-03-11T03:53:47.177Z,1.40
2023-03-11T03:56:16.136Z,1.20
2023-03-11T03:58:43.039Z,1.10
2023-03-11T04:01:11.212Z,1.10
2023-03-11T04:03:39.538Z,1.20
2023-03-11T04:06:15.202Z,1.20
2023-03-11T04:08:42.064Z,1.10
2023-03-11T04:11:09.435Z,1.10
2023-03-11T04:13:36.651Z,1.50
2023-03-11T04:16:05.024Z,1.50
2023-03-11T04:18:32.120Z,1.20
2023-03-11T04:20:58.961Z,1.00
2023-03-11T04:23:25.792Z,1.10
2023-03-11T04:25:52.546Z,1.20
2023-03-11T04:28:20.159Z,1.20
2023-03-11T04:30:46.972Z,1.40
2023-03-11T04:33:13.844Z,1.30
2023-03-11T04:35:40.667Z,1.10
2023-03-11T04:38:07.726Z,1.00
2023-03-11T04:40:34.496Z,0.90
2023-03-11T04:43:01.233Z,0.80
2023-03-11T04:45:27.986Z,0.70
2023-03-11T04:47:54.776Z,0.80
2023-03-11T04:50:21.547Z,0.90
2023-03-11T04:52:48.614Z,1.10
2023-03-11T04:55:16.248Z,1.20
2023-03-11T04:57:43.718Z,1.00
2023-03-11T05:00:12.597Z,1.30
2023-03-11T05:02:40.463Z,1.10
2023-03-11T05:05:09.336Z,0.80
2023-03-11T05:07:36.855Z,0.80
2023-03-11T05:10:05.330Z,0.80
2023-03-11T05:12:32.615Z,0.90
2023-03-11T05:14:59.401Z,0.80
2023-03-11T05:17:26.214Z,1.10
2023-03-11T05:19:54.180Z,1.20
2023-03-11T05:22:22.030Z,0.90
2023-03-11T05:24:48.913Z,1.00
2023-03-11T05:27:19.929Z,0.90
2023-03-11T05:29:46.912Z,0.90
2023-03-11T05:32:14.261Z,1.00
2023-03-11T05:34:41.172Z,0.80
2023-03-11T05:37:08.858Z,0.90
2023-03-11T05:39:37.776Z,0.80
2023-03-11T05:42:05.493Z,0.90
2023-03-11T05:44:33.284Z,0.90
2023-03-11T05:47:00.650Z,0.90
2023-03-11T05:49:27.797Z,0.60
2023-03-11T05:51:56.731Z,0.50
2023-03-11T05:54:24.878Z,0.40
2023-03-11T05:56:51.652Z,0.50
2023-03-11T05:59:18.971Z,0.40
2023-03-11T06:01:45.933Z,0.30
2023-03-11T06:04:13.063Z,0.60
2023-03-11T06:06:41.629Z,0.80
2023-03-11T06:09:14.913Z,0.80
2023-03-11T06:11:42.632Z,0.90
2023-03-11T06:14:14.443Z,0.90
2023-03-11T06:16:41.901Z,0.60
2023-03-11T06:19:09.323Z,0.50
2023-03-11T06:21:36.123Z,0.50
2023-03-11T06:24:02.900Z,0.60
2023-03-11T06:26:29.784Z,0.30
2023-03-11T06:28:56.514Z,0.20
2023-03-11T06:31:28.111Z,0.20
2023-03-11T06:33:56.084Z,0.00
2023-03-11T06:36:23.437Z,0.00
2023-03-11T06:38:53.112Z,0.10
2023-03-11T06:41:20.273Z,0.20
2023-03-11T06:43:47.110Z,0.20
2023-03-11T06:46:23.734Z,0.30
2023-03-11T06:48:53.375Z,0.40
2023-03-11T06:51:21.444Z,0.60
2023-03-11T06:53:54.953Z,0.70
2023-03-11T06:56:23.416Z,0.80
2023-03-11T06:58:50.603Z,0.90
2023-03-11T07:01:23.256Z,1.20
2023-03-11T07:03:50.914Z,1.30
2023-03-11T07:06:23.553Z,1.30
2023-03-11T07:08:52.850Z,1.40
2023-03-11T07:11:22.882Z,1.40
2023-03-11T07:13:50.293Z,1.20
2023-03-11T07:16:20.805Z,1.20
2023-03-11T07:18:49.170Z,1.30
2023-03-11T07:21:17.936Z,1.70
2023-03-11T07:23:45.303Z,2.10
2023-03-11T07:26:15.362Z,2.40
2023-03-11T07:28:42.450Z,2.70
2023-03-11T07:31:11.406Z,2.60
2023-03-11T07:33:38.484Z,2.60
2023-03-11T07:36:07.880Z,2.30
2023-03-11T07:38:35.248Z,2.20
2023-03-11T07:41:02.504Z,2.10
2023-03-11T07:43:29.921Z,2.40
2023-03-11T07:46:23.736Z,2.80
2023-03-11T07:48:51.431Z,2.90
2023-03-11T07:51:21.057Z,2.90
2023-03-11T07:53:48.627Z,3.00
2023-03-11T07:56:16.828Z,3.00
2023-03-11T07:58:45.819Z,3.10
2023-03-11T08:01:18.863Z,3.20
2023-03-11T08:03:47.619Z,3.40
2023-03-11T08:06:20.289Z,3.50
2023-03-11T08:08:47.906Z,3.70
2023-03-11T08:11:16.073Z,4.00
2023-03-11T08:13:44.595Z,4.20
2023-03-11T08:16:13.501Z,4.60
2023-03-11T08:18:40.758Z,4.50
2023-03-11T08:21:13.474Z,4.60
2023-03-11T08:23:40.384Z,4.90
2023-03-11T08:26:12.341Z,5.20
2023-03-11T08:28:39.126Z,4.90
2023-03-11T08:31:16.007Z,4.70
2023-03-11T08:33:45.452Z,4.80
2023-03-11T08:36:12.756Z,4.90
2023-03-11T08:38:39.636Z,5.10
2023-03-11T08:41:06.686Z,5.20
2023-03-11T08:43:33.877Z,6.00
2023-03-11T08:46:01.991Z,6.20
2023-03-11T08:48:29.292Z,6.20
2023-03-11T08:50:56.364Z,6.10
2023-03-11T08:53:23.670Z,6.10
2023-03-11T08:55:51.644Z,6.10
2023-03-11T08:58:19.736Z,6.40
2023-03-11T09:00:46.823Z,6.30
2023-03-11T09:03:14.151Z,6.50
2023-03-11T09:05:41.150Z,6.50
2023-03-11T09:08:08.262Z,6.90
2023-03-11T09:10:35.343Z,6.70
2023-03-11T09:13:02.157Z,6.80
2023-03-11T09:15:29.031Z,7.70
2023-03-11T09:17:57.006Z,8.00
2023-03-11T09:20:23.941Z,7.80
2023-03-11T09:22:50.723Z,8.40
2023-03-11T09:25:17.519Z,8.50
2023-03-11T09:27:44.625Z,9.00
2023-03-11T09:30:12.090Z,9.10
2023-03-11T09:32:38.952Z,9.40
2023-03-11T09:35:06.149Z,8.30
2023-03-11T09:37:32.979Z,7.90
2023-03-11T09:39:59.793Z,7.80
2023-03-11T09:42:34.397Z,8.60
2023-03-11T09:45:15.919Z,8.80
2023-03-11T09:48:11.553Z,8.40
2023-03-11T09:51:03.219Z,8.20
2023-03-11T09:53:43.197Z,7.90
2023-03-11T09:56:17.419Z,8.20
2023-03-11T09:58:50.735Z,7.60
2023-03-11T10:01:29.399Z,7.40
2023-03-11T10:04:00.550Z,7.10
2023-03-11T10:06:30.088Z,7.10
2023-03-11T10:09:34.613Z,7.10
2023-03-11T10:12:35.091Z,7.50
2023-03-11T10:15:05.837Z,7.50
2023-03-11T10:17:54.187Z,8.00
2023-03-11T10:20:29.241Z,8.10
2023-03-11T10:23:06.847Z,7.90
2023-03-11T10:25:42.713Z,8.20
2023-03-11T10:28:16.209Z,8.40
2023-03-11T10:31:07.275Z,7.90
2023-03-11T10:33:48.464Z,8.00
2023-03-11T10:36:23.981Z,8.20
2023-03-11T10:38:52.825Z,8.70
2023-03-11T10:41:22.587Z,8.00
2023-03-11T10:44:13.439Z,7.90
2023-03-11T10:46:40.271Z,8.20
2023-03-11T10:49:15.348Z,8.20
2023-03-11T10:51:46.835Z,8.40
2023-03-11T10:54:35.035Z,8.00
2023-03-11T10:57:18.879Z,7.80
2023-03-11T10:59:52.031Z,8.20
2023-03-11T11:02:26.049Z,8.40
2023-03-11T11:05:25.463Z,8.50
2023-03-11T11:08:22.478Z,7.90
2023-03-11T11:11:03.920Z,7.50
2023-03-11T11:13:34.521Z,7.30
2023-03-11T11:16:25.773Z,6.80
2023-03-11T11:19:03.504Z,7.20
2023-03-11T11:21:43.575Z,7.30
2023-03-11T11:24:20.364Z,7.10
2023-03-11T11:27:14.510Z,7.00
2023-03-11T11:29:41.749Z,7.30
2023-03-11T11:32:20.606Z,7.00
2023-03-11T11:35:15.251Z,7.00
2023-03-11T11:37:46.341Z,7.40
2023-03-11T11:40:16.746Z,7.80
2023-03-11T11:42:51.511Z,8.20
2023-03-11T11:45:40.076Z,8.90
2023-03-11T11:48:55.415Z,9.30
2023-03-11T11:51:33.255Z,9.70
2023-03-11T11:54:29.886Z,9.80
2023-03-11T11:56:58.270Z,10.10
2023-03-11T11:59:26.637Z,10.00
2023-03-11T12:01:58.928Z,9.90
2023-03-11T12:04:34.050Z,10.60
2023-03-11T12:07:12.002Z,11.20
2023-03-11T12:09:52.429Z,10.50
2023-03-11T12:12:31.437Z,10.50
2023-03-11T12:15:02.004Z,11.30
2023-03-11T12:17:31.987Z,10.40
2023-03-11T12:20:15.085Z,10.90
2023-03-11T12:23:12.994Z,11.60
2023-03-11T12:26:01.032Z,12.00
2023-03-11T12:28:46.348Z,12.40
2023-03-11T12:31:14.174Z,12.10
2023-03-11T12:33:56.892Z,11.60
2023-03-11T12:36:38.562Z,10.90
2023-03-11T12:39:28.609Z,10.10
2023-03-11T12:42:10.970Z,9.40
2023-03-11T12:44:39.338Z,10.70
2023-03-11T12:47:09.968Z,11.60
2023-03-11T12:49:46.106Z,11.10
2023-03-11T12:52:15.530Z,11.20
2023-03-11T12:54:46.090Z,12.40
2023-03-11T12:57:18.961Z,12.70
2023-03-11T12:59:45.745Z,12.80
2023-03-11T13:02:31.224Z,12.00
2023-03-11T13:05:14.404Z,11.70
2023-03-11T13:07:57.204Z,11.50
2023-03-11T13:10:45.222Z,11.50
2023-03-11T13:13:36.688Z,11.80
2023-03-11T13:16:12.797Z,11.60
2023-03-11T13:18:44.638Z,12.50
2023-03-11T13:21:32.550Z,10.70
2023-03-11T13:24:31.520Z,10.60
2023-03-11T13:27:25.571Z,10.00
2023-03-11T13:29:59.965Z,9.80
2023-03-11T13:32:51.116Z,10.20
2023-03-11T13:35:40.720Z,11.40
2023-03-11T13:38:36.212Z,10.40
2023-03-11T13:41:04.482Z,10.00
2023-03-11T13:43:31.333Z,9.80
2023-03-11T13:46:07.289Z,9.50
2023-03-11T13:48:46.445Z,9.80
2023-03-11T13:51:40.257Z,10.00
2023-03-11T13:54:41.938Z,9.80
2023-03-11T13:57:25.862Z,10.10
2023-03-11T13:59:54.220Z,9.70
2023-03-11T14:02:24.345Z,10.00
2023-03-11T14:04:55.200Z,9.20
2023-03-11T14:07:28.368Z,9.10
2023-03-11T14:10:18.592Z,9.30
2023-03-11T14:12:46.060Z,9.60
2023-03-11T14:15:21.441Z,10.10
2023-03-11T14:17:48.960Z,10.60
2023-03-11T14:20:23.715Z,10.70
2023-03-11T14:22:52.907Z,10.10
2023-03-11T14:25:24.800Z,10.20
2023-03-11T14:28:01.400Z,10.90
2023-03-11T14:30:30.953Z,10.50
2023-03-11T14:32:59.753Z,9.80
2023-03-11T14:35:27.109Z,10.70
2023-03-11T14:37:54.422Z,11.40
2023-03-11T14:40:34.115Z,11.40
2023-03-11T14:43:04.949Z,10.50
2023-03-11T14:45:40.284Z,10.50
2023-03-11T14:48:26.514Z,9.90
2023-03-11T14:50:55.290Z,9.70
2023-03-11T14:53:31.506Z,10.20
2023-03-11T14:56:04.328Z,9.80
2023-03-11T14:58:55.735Z,10.00
2023-03-11T15:01:31.368Z,10.00
2023-03-11T15:04:09.284Z,8.90
2023-03-11T15:06:39.455Z,9.70
2023-03-11T15:09:15.837Z,9.90
2023-03-11T15:11:52.908Z,9.60
2023-03-11T15:14:21.488Z,9.20
2023-03-11T15:16:49.046Z,9.20
2023-03-11T15:19:27.523Z,9.60
2023-03-11T15:21:59.915Z,9.90
2023-03-11T15:24:32.556Z,9.80
2023-03-11T15:27:08.817Z,9.60
2023-03-11T15:29:36.452Z,9.70
2023-03-11T15:32:26.294Z,9.70
2023-03-11T15:35:08.157Z,9.90
2023-03-11T15:37:35.074Z,10.20
2023-03-11T15:40:23.426Z,10.30
2023-03-11T15:43:07.585Z,9.40
2023-03-11T15:45:34.386Z,9.60
2023-03-11T15:48:01.180Z,9.20
2023-03-11T15:50:40.205Z,8.80
2023-03-11T15:53:13.676Z,8.50
2023-03-11T15:55:40.431Z,8.60
2023-03-11T15:58:09.358Z,8.80
2023-03-11T16:00:37.277Z,8.80
2023-03-11T16:03:04.645Z,9.00
2023-03-11T16:05:31.536Z,9.10
2023-03-11T16:07:58.400Z,9.20
2023-03-11T16:10:25.802Z,9.40
2023-03-11T16:12:52.695Z,9.40
2023-03-11T16:15:31.904Z,9.40
2023-03-11T16:18:02.937Z,8.70
2023-03-11T16:20:36.482Z,9.00
2023-03-11T16:23:03.795Z,8.70
2023-03-11T16:25:39.936Z,8.40
2023-03-11T16:28:07.611Z,8.40
2023-03-11T16:30:35.382Z,8.60
2023-03-11T16:33:04.543Z,8.40
2023-03-11T16:35:32.168Z,8.70
2023-03-11T16:37:59.052Z,8.50
2023-03-11T16:40:28.364Z,8.60
2023-03-11T16:43:04.887Z,8.60
2023-03-11T16:45:32.182Z,8.10
2023-03-11T16:47:59.281Z,7.90
2023-03-11T16:50:26.994Z,8.00
2023-03-11T16:52:55.290Z,8.30
2023-03-11T16:55:22.784Z,8.30
2023-03-11T16:57:49.662Z,8.10
2023-03-11T17:00:18.109Z,8.20
2023-03-11T17:02:45.066Z,8.20
2023-03-11T17:05:12.447Z,8.20
2023-03-11T17:07:40.165Z,8.20
2023-03-11T17:10:08.677Z,8.20
2023-03-11T17:12:36.107Z,8.20
2023-03-11T17:15:04.346Z,8.10
2023-03-11T17:17:31.284Z,8.00
2023-03-11T17:19:58.140Z,7.90
2023-03-11T17:22:24.953Z,7.90
2023-03-11T17:24:51.754Z,7.80
2023-03-11T17:27:18.488Z,7.80
2023-03-11T17:29:45.339Z,7.80
2023-03-11T17:32:17.208Z,7.80
2023-03-11T17:34:44.353Z,7.80
2023-03-11T17:37:11.181Z,7.70
2023-03-11T17:39:38.143Z,7.60
2023-03-11T17:42:05.187Z,7.60
2023-03-11T17:44:48.539Z,7.50
2023-03-11T17:47:19.718Z,7.60
2023-03-11T17:49:47.627Z,7.60
2023-03-11T17:52:14.705Z,7.50
2023-03-11T17:54:41.510Z,7.60
2023-03-11T17:57:08.299Z,7.50
2023-03-11T17:59:35.158Z,7.40
2023-03-11T18:02:02.449Z,7.50
2023-03-11T18:04:29.397Z,7.40
2023-03-11T18:06:56.518Z,7.20
2023-03-11T18:09:23.434Z,7.20
2023-03-11T18:11:50.282Z,7.10
2023-03-11T18:14:17.157Z,7.00
2023-03-11T18:16:43.963Z,7.10
2023-03-11T18:19:10.724Z,7.10
2023-03-11T18:21:37.505Z,7.00
2023-03-11T18:24:04.724Z,7.00
2023-03-11T18:26:31.662Z,7.00
2023-03-11T18:28:59.808Z,6.90
2023-03-11T18:31:28.204Z,6.90
2023-03-11T18:33:58.198Z,6.90
2023-03-11T18:36:30.625Z,6.90
2023-03-11T18:38:59.324Z,6.90
2023-03-11T18:41:28.186Z,6.90
2023-03-11T18:43:59.578Z,6.90
2023-03-11T18:46:31.457Z,6.80
2023-03-11T18:48:59.577Z,6.70
2023-03-11T18:51:28.682Z,6.60
2023-03-11T18:53:55.519Z,6.70
2023-03-11T18:56:22.408Z,6.70
2023-03-11T18:58:49.292Z,6.60
2023-03-11T19:01:21.117Z,6.50
2023-03-11T19:03:52.788Z,6.40
2023-03-11T19:06:20.143Z,6.40
2023-03-11T19:08:47.073Z,6.50
2023-03-11T19:11:17.235Z,6.50
2023-03-11T19:13:48.148Z,6.40
2023-03-11T19:16:18.138Z,6.40
2023-03-11T19:18:45.464Z,6.30
2023-03-11T19:21:13.736Z,6.30
2023-03-11T19:23:40.776Z,6.20
2023-03-11T19:26:08.363Z,6.20
2023-03-11T19:28:35.604Z,6.20
2023-03-11T19:31:03.495Z,6.20
2023-03-11T19:33:30.444Z,6.10
2023-03-11T19:36:00.504Z,6.00
2023-03-11T19:38:28.663Z,6.00
2023-03-11T19:41:02.803Z,5.90
2023-03-11T19:43:30.191Z,6.00
2023-03-11T19:45:57.265Z,5.90
2023-03-11T19:48:24.538Z,5.90
2023-03-11T19:50:51.952Z,5.80
2023-03-11T19:53:20.573Z,5.90
2023-03-11T19:55:50.386Z,5.90
2023-03-11T19:58:17.393Z,5.90
2023-03-11T20:00:45.449Z,5.80
2023-03-11T20:03:13.592Z,5.80
2023-03-11T20:05:43.555Z,5.80
2023-03-11T20:08:12.038Z,5.80
2023-03-11T20:10:43.925Z,5.70
2023-03-11T20:13:10.797Z,5.70
2023-03-11T20:15:38.079Z,5.70
2023-03-11T20:18:06.344Z,5.70
2023-03-11T20:20:34.705Z,5.70
2023-03-11T20:23:02.237Z,5.60
2023-03-11T20:25:32.893Z,5.60
2023-03-11T20:28:00.554Z,5.60
2023-03-11T20:30:28.538Z,5.60
2023-03-11T20:32:55.919Z,5.70
2023-03-11T20:35:23.793Z,5.70
2023-03-11T20:37:50.801Z,5.60
2023-03-11T20:40:18.739Z,5.50
2023-03-11T20:42:47.295Z,5.50
2023-03-11T20:45:17.572Z,5.40
2023-03-11T20:47:44.534Z,5.40
2023-03-11T20:50:12.820Z,5.30
2023-03-11T20:52:40.403Z,5.30
2023-03-11T20:55:08.585Z,5.30
2023-03-11T20:57:35.832Z,5.30
2023-03-11T21:00:10.908Z,5.30
2023-03-11T21:02:39.208Z,5.20
2023-03-11T21:05:07.505Z,5.30
2023-03-11T21:07:34.624Z,5.30
2023-03-11T21:10:03.971Z,5.20
2023-03-11T21:12:31.502Z,5.30
2023-03-11T21:14:58.487Z,5.20
2023-03-11T21:17:25.528Z,5.30
2023-03-11T21:19:52.322Z,5.30
2023-03-11T21:22:19.368Z,5.20
2023-03-11T21:24:46.303Z,5.10
2023-03-11T21:27:13.279Z,5.00
2023-03-11T21:29:40.206Z,5.10
2023-03-11T21:32:07.946Z,5.10
2023-03-11T21:34:34.990Z,5.20
2023-03-11T21:37:01.920Z,5.20
2023-03-11T21:39:28.797Z,5.20
2023-03-11T21:41:57.233Z,5.20
2023-03-11T21:44:24.127Z,5.20
2023-03-11T21:46:51.166Z,5.20
2023-03-11T21:49:18.192Z,5.20
2023-03-11T21:51:45.125Z,5.20
2023-03-11T21:54:12.714Z,5.20
2023-03-11T21:56:40.061Z,5.30
2023-03-11T21:59:07.938Z,5.40
2023-03-11T22:01:35.116Z,5.40
2023-03-11T22:04:02.557Z,5.30
2023-03-11T22:06:31.222Z,5.30
2023-03-11T22:08:58.045Z,5.40
2023-03-11T22:11:25.240Z,5.10
2023-03-11T22:13:53.768Z,5.00
2023-03-11T22:16:22.344Z,5.00
2023-03-11T22:18:50.046Z,5.20
2023-03-11T22:21:17.890Z,5.20
2023-03-11T22:23:45.390Z,5.20
2023-03-11T22:26:13.321Z,5.20
2023-03-11T22:28:40.241Z,5.20
2023-03-11T22:31:13.584Z,5.10
2023-03-11T22:33:40.755Z,5.00
2023-03-11T22:36:09.199Z,5.10
2023-03-11T22:38:37.282Z,5.00
2023-03-11T22:41:08.761Z,5.00
2023-03-11T22:43:36.626Z,4.90
2023-03-11T22:46:04.610Z,4.90
2023-03-11T22:48:32.890Z,5.00
2023-03-11T22:50:59.752Z,5.00
2023-03-11T22:53:26.796Z,5.00
2023-03-11T22:55:53.948Z,5.00
2023-03-11T22:58:20.816Z,5.10
2023-03-11T23:00:47.814Z,5.00
2023-03-11T23:03:16.008Z,5.10
2023-03-11T23:05:43.356Z,5.00
2023-03-11T23:08:12.348Z,5.10
2023-03-11T23:10:44.584Z,5.10
2023-03-11T23:13:12.846Z,5.10
2023-03-11T23:15:43.660Z,5.20
2023-03-11T23:18:11.165Z,5.00
2023-03-11T23:20:40.156Z,4.90
2023-03-11T23:23:07.835Z,5.10
2023-03-11T23:25:35.701Z,4.90
2023-03-11T23:28:04.703Z,4.80
2023-03-11T23:30:32.324Z,4.90
2023-03-11T23:33:00.144Z,4.80
2023-03-11T23:35:27.050Z,4.90
2023-03-11T23:37:53.832Z,5.10
2023-03-11T23:40:20.681Z,5.10
2023-03-11T23:42:47.445Z,5.00
2023-03-11T23:45:14.204Z,5.10
2023-03-11T23:47:41.027Z,5.10
2023-03-11T23:50:08.609Z,5.10
2023-03-11T23:52:35.595Z,5.10
2023-03-11T23:55:02.414Z,5.00
2023-03-11T23:57:29.216Z,5.00
2023-03-11T23:59:56.146Z,5.00
